EW9688 Weather Reports


Display with metric or nautical units.
time (UTC)temp
F
wind
direction
speed
MPH
gust
MPH
rain 1hr
in
rain 24hr
in
rain mn
in
humidity
%
barometer
mb
20210926005119 72 306 1.0 2.0 0.00 0.00 0.00 22 1020.3
20210926004117 74 254 1.0 1.0 0.00 0.00 0.00 21 1020.2
20210926003119 76 328 1.0 2.0 0.00 0.00 0.00 21 1020.2
20210926002119 78 300 1.0 2.0 0.00 0.00 0.00 17 1020.1
20210926001119 79 158 2.0 4.0 0.00 0.00 0.00 17 1020.1
20210926000119 79 108 1.0 2.0 0.00 0.00 0.00 18 1020.0
20210925235120 79 144 2.0 3.0 0.00 0.00 0.00 17 1020.0
20210925234117 79 153 3.0 5.0 0.00 0.00 0.00 17 1020.0
20210925233120 80 137 3.0 4.0 0.00 0.00 0.00 17 1019.9
20210925232120 80 141 3.0 5.0 0.00 0.00 0.00 17 1020.0
20210925231120 80 123 2.0 5.0 0.00 0.00 0.00 17 1020.0
20210925230117 80 135 1.0 2.0 0.00 0.00 0.00 18 1020.0
20210925225118 80 129 2.0 4.0 0.00 0.00 0.00 18 1020.0
20210925224118 80 119 4.0 6.0 0.00 0.00 0.00 18 1020.1
20210925223117 80 127 4.0 6.0 0.00 0.00 0.00 18 1020.1
20210925222118 80 118 3.0 7.0 0.00 0.00 0.00 18 1020.2
20210925221118 80 139 4.0 5.0 0.00 0.00 0.00 18 1020.2
20210925220118 80 118 3.0 7.0 0.00 0.00 0.00 19 1020.3
20210925215118 80 128 5.0 8.0 0.00 0.00 0.00 19 1020.4
20210925214118 80 123 5.0 8.0 0.00 0.00 0.00 19 1020.5
20210925213119 79 118 4.0 5.0 0.00 0.00 0.00 19 1020.6
20210925212119 79 145 4.0 6.0 0.00 0.00 0.00 20 1020.7
20210925211119 79 140 3.0 6.0 0.00 0.00 0.00 20 1020.9
20210925210116 79 127 5.0 8.0 0.00 0.00 0.00 21 1020.9
20210925205119 79 124 4.0 6.0 0.00 0.00 0.00 21 1021.1
20210925204119 78 130 4.0 7.0 0.00 0.00 0.00 21 1021.3
20210925203120 79 121 5.0 9.0 0.00 0.00 0.00 21 1021.4
20210925202117 79 145 1.0 2.0 0.00 0.00 0.00 20 1021.6
20210925201117 78 111 5.0 8.0 0.00 0.00 0.00 21 1021.7
20210925200117 78 84 5.0 8.0 0.00 0.00 0.00 21 1021.9
20210925195120 78 148 4.0 7.0 0.00 0.00 0.00 20 1022.1
20210925194118 78 148 5.0 7.0 0.00 0.00 0.00 20 1022.4
20210925193118 78 145 4.0 6.0 0.00 0.00 0.00 22 1022.6
20210925192118 77 132 2.0 4.0 0.00 0.00 0.00 22 1022.7
20210925191118 77 129 2.0 3.0 0.00 0.00 0.00 22 1023.0
20210925190119 76 148 4.0 8.0 0.00 0.00 0.00 22 1023.1
20210925185119 76 139 4.0 7.0 0.00 0.00 0.00 21 1023.2
20210925184118 76 142 4.0 7.0 0.00 0.00 0.00 24 1023.4
20210925183119 76 127 3.0 4.0 0.00 0.00 0.00 23 1023.5
20210925182116 75 139 5.0 9.0 0.00 0.00 0.00 24 1023.5
20210925181119 75 140 4.0 7.0 0.00 0.00 0.00 23 1023.6
20210925180119 75 117 4.0 6.0 0.00 0.00 0.00 22 1023.8
20210925175116 75 136 4.0 6.0 0.00 0.00 0.00 24 1023.9
20210925174119 74 90 3.0 5.0 0.00 0.00 0.00 24 1024.0
20210925173121 74 130 3.0 5.0 0.00 0.00 0.00 21 1024.1
20210925172120 74 123 4.0 8.0 0.00 0.00 0.00 21 1024.3
20210925171117 74 173 3.0 6.0 0.00 0.00 0.00 22 1024.4
20210925170117 73 144 4.0 7.0 0.00 0.00 0.00 24 1024.5
20210925165118 73 148 3.0 7.0 0.00 0.00 0.00 23 1024.6
20210925164118 73 122 4.0 8.0 0.00 0.00 0.00 22 1024.6
20210925163118 73 135 4.0 7.0 0.00 0.00 0.00 24 1024.7
20210925162118 73 96 3.0 6.0 0.00 0.00 0.00 24 1024.7
20210925161118 72 145 3.0 6.0 0.00 0.00 0.00 24 1024.8
20210925160118 72 142 4.0 7.0 0.00 0.00 0.00 24 1024.8
20210925155118 72 122 2.0 3.0 0.00 0.00 0.00 24 1024.8
20210925154119 71 164 2.0 3.0 0.00 0.00 0.00 26 1024.8
20210925153119 71 168 2.0 3.0 0.00 0.00 0.00 26 1024.9
20210925152119 71 154 3.0 4.0 0.00 0.00 0.00 27 1025.0
20210925151119 71 181 3.0 4.0 0.00 0.00 0.00 26 1024.9
20210925150116 72 248 1.0 2.0 0.00 0.00 0.00 25 1025.0
20210925145116 70 250 1.0 2.0 0.00 0.00 0.00 29 1025.0
20210925144120 66 246 0.0 1.0 0.00 0.00 0.00 27 1025.1
20210925143120 63 246 0.0 1.0 0.00 0.00 0.00 38 1025.2
20210925142117 61 200 1.0 2.0 0.00 0.00 0.00 38 1025.3
20210925141118 59 288 2.0 3.0 0.00 0.00 0.00 41 1025.3
20210925140117 57 171 0.0 1.0 0.00 0.00 0.00 41 1025.3
20210925135118 55 208 1.0 2.0 0.00 0.00 0.00 40 1025.2
20210925134118 54 258 2.0 3.0 0.00 0.00 0.00 39 1025.2
20210925133118 54 279 1.0 2.0 0.00 0.00 0.00 38 1025.1
20210925132118 54 316 1.0 2.0 0.00 0.00 0.00 36 1025.0
20210925131118 53 305 3.0 4.0 0.00 0.00 0.00 36 1025.0
20210925130118 52 312 3.0 6.0 0.00 0.00 0.00 38 1025.0
20210925125119 51 296 2.0 3.0 0.00 0.00 0.00 41 1025.0
20210925124119 50 210 1.0 1.0 0.00 0.00 0.00 44 1025.0
20210925123119 50 271 3.0 5.0 0.00 0.00 0.00 45 1025.0
20210925122119 51 182 1.0 1.0 0.00 0.00 0.00 51 1025.0
20210925121116 50 281 1.0 2.0 0.00 0.00 0.00 51 1025.0
20210925120117 49 264 1.0 2.0 0.00 0.00 0.00 51 1025.0
20210925115119 49 275 2.0 3.0 0.00 0.00 0.00 52 1025.1
20210925114117 50 228 2.0 2.0 0.00 0.00 0.00 50 1025.0
20210925113117 50 265 1.0 2.0 0.00 0.00 0.00 51 1025.0
20210925112117 50 261 2.0 2.0 0.00 0.00 0.00 50 1025.0
20210925111120 51 283 1.0 3.0 0.00 0.00 0.00 50 1025.0
20210925110117 50 322 2.0 3.0 0.00 0.00 0.00 48 1025.0
20210925105118 49 251 1.0 2.0 0.00 0.00 0.00 51 1025.0
20210925104119 50 270 2.0 3.0 0.00 0.00 0.00 50 1024.9
20210925103118 50 244 1.0 3.0 0.00 0.00 0.00 50 1025.0
20210925102118 50 218 1.0 2.0 0.00 0.00 0.00 51 1025.0
20210925101118 50 230 1.0 2.0 0.00 0.00 0.00 50 1024.9
20210925100119 50 266 2.0 3.0 0.00 0.00 0.00 51 1024.9
20210925095119 51 213 1.0 2.0 0.00 0.00 0.00 50 1025.0
20210925094119 51 308 2.0 3.0 0.00 0.00 0.00 49 1025.0
20210925093116 51 214 1.0 2.0 0.00 0.00 0.00 51 1025.0
20210925092119 51 273 2.0 3.0 0.00 0.00 0.00 49 1025.0
20210925091119 50 269 2.0 3.0 0.00 0.00 0.00 50 1025.0
20210925090119 49 273 2.0 4.0 0.00 0.00 0.00 53 1025.1
20210925085116 50 219 1.0 2.0 0.00 0.00 0.00 54 1025.2
20210925084117 50 234 1.0 2.0 0.00 0.00 0.00 54 1025.2
20210925083120 50 238 1.0 2.0 0.00 0.00 0.00 54 1025.2
20210925082120 50 225 1.0 1.0 0.00 0.00 0.00 55 1025.2
20210925081117 50 257 1.0 2.0 0.00 0.00 0.00 54 1025.2
20210925080117 51 248 1.0 2.0 0.00 0.00 0.00 54 1025.3
20210925075118 51 261 1.0 3.0 0.00 0.00 0.00 54 1025.3
20210925074118 52 269 1.0 3.0 0.00 0.00 0.00 54 1025.5
20210925073118 52 272 2.0 4.0 0.00 0.00 0.00 53 1025.4
20210925072118 52 260 1.0 3.0 0.00 0.00 0.00 54 1025.6
20210925071118 51 273 2.0 3.0 0.00 0.00 0.00 54 1025.6
20210925070118 51 259 1.0 3.0 0.00 0.00 0.00 55 1025.7
20210925065119 52 268 1.0 3.0 0.00 0.00 0.00 55 1025.9
20210925064120 52 268 2.0 2.0 0.00 0.00 0.00 52 1026.0
20210925063119 53 272 2.0 3.0 0.00 0.00 0.00 51 1026.0
20210925062119 53 283 2.0 4.0 0.00 0.00 0.00 50 1026.0
20210925061119 53 280 3.0 5.0 0.00 0.00 0.00 50 1026.1
20210925060119 54 280 2.0 3.0 0.00 0.00 0.00 50 1026.1
20210925055119 55 267 2.0 3.0 0.00 0.00 0.00 49 1026.1
20210925054121 54 276 1.0 2.0 0.00 0.00 0.00 49 1026.1
20210925053120 54 281 2.0 3.0 0.00 0.00 0.00 49 1026.1
20210925052118 54 289 3.0 4.0 0.00 0.00 0.00 50 1026.3
20210925051117 54 283 3.0 4.0 0.00 0.00 0.00 50 1026.4
20210925050120 54 284 2.0 3.0 0.00 0.00 0.00 50 1026.4
20210925045118 54 274 2.0 3.0 0.00 0.00 0.00 49 1026.4
20210925044118 54 278 2.0 3.0 0.00 0.00 0.00 50 1026.6
20210925043118 54 280 2.0 3.0 0.00 0.00 0.00 51 1026.6
20210925042118 54 288 3.0 4.0 0.00 0.00 0.00 52 1026.6
20210925041118 54 288 3.0 4.0 0.00 0.00 0.00 50 1026.6
20210925040119 54 299 3.0 4.0 0.00 0.00 0.00 50 1026.6
20210925035118 54 282 2.0 3.0 0.00 0.00 0.00 51 1026.7
20210925034119 54 275 2.0 3.0 0.00 0.00 0.00 50 1026.7
20210925033119 54 283 2.0 2.0 0.00 0.00 0.00 51 1026.8
20210925032119 54 286 3.0 3.0 0.00 0.00 0.00 51 1026.8
20210925031116 54 281 3.0 3.0 0.00 0.00 0.00 50 1026.7
20210925030119 55 275 1.0 2.0 0.00 0.00 0.00 48 1026.6
20210925025120 55 252 1.0 2.0 0.00 0.00 0.00 48 1026.7
20210925024120 55 267 1.0 2.0 0.00 0.00 0.00 49 1026.7
20210925023117 55 282 1.0 2.0 0.00 0.00 0.00 49 1026.6
20210925022117 56 242 1.0 2.0 0.00 0.00 0.00 47 1026.6
20210925021120 55 240 1.0 2.0 0.00 0.00 0.00 49 1026.4
20210925020118 56 227 1.0 2.0 0.00 0.00 0.00 48 1026.3
20210925015117 57 209 1.0 2.0 0.00 0.00 0.00 47 1026.2
20210925014119 57 214 1.0 2.0 0.00 0.00 0.00 45 1026.1
20210925013118 58 230 1.0 3.0 0.00 0.00 0.00 45 1026.1
20210925012118 59 216 1.0 2.0 0.00 0.00 0.00 45 1026.0
20210925011118 61 269 2.0 3.0 0.00 0.00 0.00 42 1026.0
20210925010119 62 312 2.0 3.0 0.00 0.00 0.00 42 1025.9